Friedman Memorial Airport
KSUN : now visible

Airfield :











YOU CAN JOIN US ON...

 
LOGIN :

Register | Disclaimer

   EN    FR    IT 

 









Legend :    VFR   Marginal VFR   IFR   Intensive IFR   Very Intensive IFR
Visi :
Ceiling :
>= 8 km
>= 3000ft
5 to 8 km
1000 to 3000 ft
1500m to 5 km
500 to 1000 ft
800 to 1500m
200 to 500 ft
< 800m
< 200 ft
Symbols :   Thunderstorms  Fog  Heavy snow  Heavy precipitations  Wind > 20 kt






- Airport Elevation : 5318 ft


KSUN - Friedman Memorial

CURRENT METAR :
  • 110935Z AUTO 32010G14KT 10SM CLR M05/M08 A3017 RMK AO2

EXPIRED METARs :
  • 110915Z AUTO 32010KT 10SM SCT120 M05/M08 A3017 RMK AO2
  • 110855Z AUTO 31009G14KT 10SM SCT120 M05/M08 A3017 RMK AO2
  • 110835Z AUTO 32008KT 10SM SCT120 M05/M08 A3019 RMK AO2
  • 110815Z AUTO 30011KT 10SM CLR M06/M08 A3019 RMK AO2
  • 110755Z AUTO 33007KT 10SM CLR M06/M08 A3019 RMK AO2
  • 110735Z AUTO 31008KT 10SM CLR M06/M08 A3020 RMK AO2
  • 110715Z AUTO 32006KT 10SM CLR M06/M08 A3021 RMK AO2
  • 110655Z AUTO 32008KT 10SM CLR M06/M09 A3022 RMK AO2
  • 110635Z AUTO 31011KT 10SM CLR M06/M08 A3023 RMK AO2

TAF KSUN
Valid from the 11 at 06:00 until the 12 at 12:00 UTC


110522Z 1106/1212 32006KT P6SM SCT050 BKN130
FM111500 VRB04KT 5SM -SN SCT010 BKN025 OVC050
FM111700 23011KT P6SM BKN040
FM120300 VRB05KT P6SM VCSH SCT020 OVC040
FM120900 VRB05KT 2SM -SN BR BKN010 OVC020 AMD LTD TO CLD VIS AND WIND TIL 111300



MET'MAP, your aeronautical weather chart ! - Copyright ORBIFLY December 2007 - Disclaimer

ORBIFLY MET'MAP TEAM :

Programming & Development : Alexandra Zaïnal
Concept & original design : Baudouin d'Aumeries
Assistance for programming : Marc-Olivier Méhu
Technical & hardware support : Manuel Goepfert

Contact : metmap@orbifly.com




SOURCES & CREDITS :

   NOAA       Earth
Advisory